createdAt,value
2022-11-27T00:02:45.707Z,6.81
2022-11-27T00:06:47.386Z,6.79
2022-11-27T00:10:48.880Z,6.85
2022-11-27T00:14:53.436Z,6.87
2022-11-27T00:18:57.196Z,6.94
2022-11-27T00:22:58.852Z,6.91
2022-11-27T00:27:00.530Z,6.86
2022-11-27T00:31:04.728Z,6.80
2022-11-27T00:35:06.817Z,6.72
2022-11-27T00:39:08.485Z,6.63
2022-11-27T00:43:10.363Z,6.55
2022-11-27T00:47:11.948Z,6.59
2022-11-27T00:51:16.694Z,6.59
2022-11-27T00:55:18.373Z,6.54
2022-11-27T00:59:19.886Z,6.49
2022-11-27T01:03:21.431Z,6.41
2022-11-27T01:07:23.188Z,6.33
2022-11-27T01:11:28.052Z,6.22
2022-11-27T01:15:29.596Z,6.13
2022-11-27T01:19:31.094Z,5.99
2022-11-27T01:23:33.491Z,5.95
2022-11-27T01:27:35.038Z,5.98
2022-11-27T01:31:36.659Z,6.01
2022-11-27T01:35:38.202Z,5.95
2022-11-27T01:39:39.959Z,5.82
2022-11-27T01:43:47.624Z,5.69
2022-11-27T01:48:00.567Z,5.61
2022-11-27T01:52:07.660Z,5.53
2022-11-27T01:56:09.789Z,5.44
2022-11-27T02:00:14.023Z,5.37
2022-11-27T02:04:15.660Z,5.29
2022-11-27T02:08:18.289Z,5.27
2022-11-27T02:12:26.265Z,5.23
2022-11-27T02:16:38.989Z,5.17
2022-11-27T02:20:48.686Z,5.09
2022-11-27T02:25:12.481Z,5.04
2022-11-27T02:29:17.443Z,4.97
2022-11-27T02:33:21.576Z,4.89
2022-11-27T02:37:56.176Z,4.85
2022-11-27T02:42:07.990Z,4.75
2022-11-27T02:46:10.876Z,4.70
2022-11-27T02:50:18.112Z,4.62
2022-11-27T02:54:25.224Z,4.54
2022-11-27T02:58:29.707Z,4.44
2022-11-27T03:02:37.341Z,4.38
2022-11-27T03:06:44.854Z,4.28
2022-11-27T03:11:01.369Z,4.11
2022-11-27T03:15:06.355Z,4.02
2022-11-27T03:19:23.825Z,4.02
2022-11-27T03:23:25.504Z,3.95
2022-11-27T03:27:34.513Z,3.94
2022-11-27T03:31:37.907Z,3.97
2022-11-27T03:35:39.458Z,3.90
2022-11-27T03:39:41.779Z,3.86
2022-11-27T03:43:57.382Z,3.74
2022-11-27T03:48:23.886Z,3.54
2022-11-27T03:52:42.234Z,3.32
2022-11-27T03:56:55.443Z,3.23
2022-11-27T04:00:59.993Z,3.26
2022-11-27T04:05:01.593Z,3.32
2022-11-27T04:09:03.731Z,3.41
2022-11-27T04:13:05.386Z,3.36
2022-11-27T04:17:06.887Z,3.24
2022-11-27T04:21:08.505Z,3.21
2022-11-27T04:25:10.259Z,3.23
2022-11-27T04:29:11.842Z,3.19
2022-11-27T04:33:13.333Z,3.15
2022-11-27T04:37:14.988Z,3.05
2022-11-27T04:41:16.519Z,2.92
2022-11-27T04:45:18.278Z,2.82
2022-11-27T04:49:19.991Z,2.79
2022-11-27T04:53:21.958Z,2.78
2022-11-27T04:57:23.758Z,2.79
2022-11-27T05:01:25.578Z,2.85
2022-11-27T05:05:27.448Z,2.81
2022-11-27T05:09:28.994Z,2.78
2022-11-27T05:13:31.251Z,2.75
2022-11-27T05:17:32.778Z,2.74
2022-11-27T05:21:34.478Z,2.70
2022-11-27T05:25:35.970Z,2.65
2022-11-27T05:29:39.381Z,2.56
2022-11-27T05:33:40.953Z,2.36
2022-11-27T05:37:42.545Z,2.25
2022-11-27T05:41:44.376Z,2.28
2022-11-27T05:45:45.936Z,2.20
2022-11-27T05:49:47.520Z,2.05
2022-11-27T05:53:49.070Z,1.93
2022-11-27T05:57:50.567Z,1.91
2022-11-27T06:01:52.271Z,1.90
2022-11-27T06:05:54.010Z,2.04
2022-11-27T06:09:55.531Z,2.03
2022-11-27T06:13:57.027Z,2.06
2022-11-27T06:17:58.799Z,2.03
2022-11-27T06:22:00.435Z,2.14
2022-11-27T06:26:19.900Z,2.34
2022-11-27T06:30:21.630Z,2.37
2022-11-27T06:34:23.277Z,2.36
2022-11-27T06:38:24.858Z,2.33
2022-11-27T06:42:30.182Z,2.38
2022-11-27T06:46:31.750Z,2.43
2022-11-27T06:50:33.349Z,2.36
2022-11-27T06:54:35.064Z,2.42
2022-11-27T06:58:37.324Z,2.63
2022-11-27T07:02:38.961Z,2.74
2022-11-27T07:06:43.192Z,2.96
2022-11-27T07:10:44.898Z,3.17
2022-11-27T07:14:46.687Z,3.10
2022-11-27T07:18:50.918Z,3.04
2022-11-27T07:22:52.636Z,3.09
2022-11-27T07:26:54.146Z,3.05
2022-11-27T07:30:57.363Z,3.30
2022-11-27T07:34:58.979Z,3.43
2022-11-27T07:39:00.478Z,3.48
2022-11-27T07:43:02.118Z,3.60
2022-11-27T07:47:03.956Z,3.72
2022-11-27T07:51:07.069Z,3.85
2022-11-27T07:55:09.596Z,4.02
2022-11-27T07:59:11.148Z,3.99
2022-11-27T08:03:13.041Z,3.96
2022-11-27T08:07:14.791Z,4.04
2022-11-27T08:11:24.169Z,4.19
2022-11-27T08:15:25.818Z,4.27
2022-11-27T08:19:27.558Z,4.26
2022-11-27T08:23:29.148Z,4.32
2022-11-27T08:27:33.170Z,4.42
2022-11-27T08:31:34.856Z,4.49
2022-11-27T08:35:36.837Z,4.63
2022-11-27T08:39:38.468Z,4.69
2022-11-27T08:43:40.122Z,4.73
2022-11-27T08:47:43.408Z,4.90
2022-11-27T08:51:45.117Z,4.98
2022-11-27T08:55:46.756Z,5.22
2022-11-27T08:59:48.366Z,5.42
2022-11-27T09:03:50.234Z,5.63
2022-11-27T09:07:51.958Z,6.08
2022-11-27T09:11:56.746Z,6.27
2022-11-27T09:15:58.502Z,6.45
2022-11-27T09:20:00.019Z,6.55
2022-11-27T09:24:02.048Z,6.62
2022-11-27T09:28:03.576Z,7.35
2022-11-27T09:32:05.417Z,8.03
2022-11-27T09:36:16.505Z,9.14
2022-11-27T09:40:18.137Z,11.59
2022-11-27T09:44:34.818Z,13.56
2022-11-27T09:48:40.153Z,15.71
2022-11-27T09:52:46.452Z,17.86
2022-11-27T09:56:52.034Z,17.54
2022-11-27T10:00:54.015Z,18.36
2022-11-27T10:05:13.317Z,19.87
2022-11-27T10:09:33.146Z,21.34
2022-11-27T10:14:01.083Z,20.63
2022-11-27T10:18:21.525Z,21.41
2022-11-27T10:22:38.317Z,21.82
2022-11-27T10:26:45.791Z,22.33
2022-11-27T10:30:54.238Z,23.24
2022-11-27T10:35:01.713Z,23.51
2022-11-27T10:39:07.044Z,23.64
2022-11-27T10:43:26.815Z,22.25
2022-11-27T10:47:33.725Z,20.79
2022-11-27T10:51:39.055Z,21.65
2022-11-27T10:55:53.425Z,21.99
2022-11-27T11:00:20.712Z,22.14
2022-11-27T11:04:43.267Z,22.06
2022-11-27T11:08:44.869Z,21.08
2022-11-27T11:12:46.541Z,21.21
2022-11-27T11:16:48.638Z,21.68
2022-11-27T11:20:55.605Z,22.39
2022-11-27T11:24:57.920Z,23.18
2022-11-27T11:29:02.869Z,22.44
2022-11-27T11:33:04.576Z,22.60
2022-11-27T11:37:26.977Z,22.91
2022-11-27T11:41:39.249Z,23.28
2022-11-27T11:45:46.741Z,24.65
2022-11-27T11:49:48.836Z,25.53
2022-11-27T11:54:10.258Z,26.50
2022-11-27T11:58:30.726Z,22.90
2022-11-27T12:02:50.520Z,19.34
2022-11-27T12:07:07.831Z,19.98
2022-11-27T12:11:27.891Z,22.63
2022-11-27T12:15:37.296Z,23.45
2022-11-27T12:20:01.715Z,24.73
2022-11-27T12:24:21.626Z,24.76
2022-11-27T12:28:55.938Z,23.88
2022-11-27T12:33:19.430Z,23.64
2022-11-27T12:38:14.999Z,23.69
2022-11-27T12:42:26.095Z,24.55
2022-11-27T12:47:16.745Z,23.19
2022-11-27T12:51:27.780Z,24.01
2022-11-27T12:55:33.179Z,25.33
2022-11-27T12:59:59.921Z,25.18
2022-11-27T13:04:17.145Z,24.73
2022-11-27T13:08:24.293Z,23.90
2022-11-27T13:12:57.368Z,23.43
2022-11-27T13:17:03.845Z,22.93
2022-11-27T13:21:12.084Z,22.57
2022-11-27T13:25:14.763Z,21.21
2022-11-27T13:29:31.877Z,21.31
2022-11-27T13:33:44.983Z,21.57
2022-11-27T13:37:49.493Z,21.07
2022-11-27T13:42:12.336Z,17.47
2022-11-27T13:46:24.970Z,15.70
2022-11-27T13:50:31.014Z,14.51
2022-11-27T13:54:33.379Z,13.34
2022-11-27T13:58:38.152Z,12.19
2022-11-27T14:02:51.758Z,11.39
2022-11-27T14:07:03.446Z,11.02
2022-11-27T14:11:14.225Z,10.41
2022-11-27T14:15:16.107Z,10.18
2022-11-27T14:19:33.675Z,9.92
2022-11-27T14:23:49.373Z,9.77
2022-11-27T14:28:12.457Z,9.60
2022-11-27T14:32:15.831Z,9.34
2022-11-27T14:36:32.273Z,9.15
2022-11-27T14:40:35.179Z,9.04
2022-11-27T14:44:43.890Z,8.75
2022-11-27T14:49:05.899Z,8.52
2022-11-27T14:53:22.982Z,8.25
2022-11-27T14:57:27.038Z,8.26
2022-11-27T15:07:27.069Z,7.86
2022-11-27T15:11:54.547Z,7.66
2022-11-27T15:16:08.183Z,7.46
2022-11-27T15:20:20.899Z,7.34
2022-11-27T15:24:44.953Z,7.05
2022-11-27T15:29:43.886Z,6.96
2022-11-27T15:34:01.256Z,6.80
2022-11-27T15:38:19.835Z,6.63
2022-11-27T15:42:22.274Z,6.43
2022-11-27T15:46:59.660Z,6.28
2022-11-27T15:52:13.215Z,6.25
2022-11-27T15:56:23.385Z,6.22
2022-11-27T16:00:27.607Z,6.18
2022-11-27T16:04:29.611Z,6.11
2022-11-27T16:08:34.907Z,6.16
2022-11-27T16:12:46.383Z,6.12
2022-11-27T16:16:55.737Z,6.12
2022-11-27T16:21:29.288Z,6.01
2022-11-27T16:25:31.489Z,5.95
2022-11-27T16:29:33.940Z,5.87
2022-11-27T16:33:35.651Z,5.84
2022-11-27T16:37:38.854Z,5.82
2022-11-27T16:41:40.858Z,5.80
2022-11-27T16:45:43.195Z,5.69
2022-11-27T16:49:54.243Z,5.62
2022-11-27T16:54:01.354Z,5.60
2022-11-27T16:58:06.224Z,5.53
2022-11-27T17:02:12.281Z,5.50
2022-11-27T17:07:06.111Z,5.46
2022-11-27T17:11:14.814Z,5.31
2022-11-27T17:15:19.640Z,5.33
2022-11-27T17:24:31.510Z,5.25
2022-11-27T17:28:47.338Z,5.23
2022-11-27T17:32:49.854Z,5.20
2022-11-27T17:36:57.463Z,5.18
2022-11-27T17:41:08.670Z,5.02
2022-11-27T17:45:10.776Z,4.99
2022-11-27T17:49:12.346Z,4.94
2022-11-27T17:53:14.032Z,4.93
2022-11-27T17:57:15.529Z,4.93
2022-11-27T18:01:36.627Z,4.88
2022-11-27T18:05:39.342Z,4.83
2022-11-27T18:09:42.378Z,4.87
2022-11-27T18:13:47.564Z,4.94
2022-11-27T18:17:49.388Z,4.95
2022-11-27T18:21:50.913Z,4.93
2022-11-27T18:25:52.641Z,4.96
2022-11-27T18:29:54.157Z,4.89
2022-11-27T18:33:57.629Z,4.92
2022-11-27T18:37:59.753Z,4.92
2022-11-27T18:42:03.171Z,4.87
2022-11-27T18:46:06.272Z,4.82
2022-11-27T18:50:57.604Z,4.79
2022-11-27T18:55:52.742Z,4.74
2022-11-27T18:59:56.335Z,4.69
2022-11-27T19:04:01.058Z,4.68
2022-11-27T19:08:04.393Z,4.72
2022-11-27T19:12:08.562Z,4.80
2022-11-27T19:16:41.581Z,4.83
2022-11-27T19:20:43.813Z,4.86
2022-11-27T19:25:38.277Z,4.85
2022-11-27T19:29:40.310Z,4.76
2022-11-27T19:33:54.671Z,4.79
2022-11-27T19:38:15.097Z,4.70
2022-11-27T19:42:23.787Z,4.70
2022-11-27T19:46:29.256Z,4.71
2022-11-27T19:50:31.252Z,4.78
2022-11-27T19:54:33.550Z,4.58
2022-11-27T19:58:36.480Z,4.60
2022-11-27T20:02:40.187Z,4.56
2022-11-27T20:06:47.880Z,4.50
2022-11-27T20:10:50.398Z,4.56
2022-11-27T20:14:52.446Z,4.55
2022-11-27T20:18:54.964Z,4.52
2022-11-27T20:22:58.100Z,4.52
2022-11-27T20:27:03.077Z,4.60
2022-11-27T20:31:08.841Z,4.54
2022-11-27T20:35:10.812Z,4.58
2022-11-27T20:39:38.443Z,4.57
2022-11-27T20:43:41.170Z,4.51
2022-11-27T20:47:44.207Z,4.53
2022-11-27T20:52:16.915Z,4.54
2022-11-27T20:56:23.535Z,4.53
2022-11-27T21:00:39.613Z,4.53
2022-11-27T21:04:43.656Z,4.56
2022-11-27T21:08:48.284Z,4.52
2022-11-27T21:12:57.909Z,4.52
2022-11-27T21:17:04.848Z,4.45
2022-11-27T21:21:13.716Z,4.46
2022-11-27T21:25:22.617Z,4.42
2022-11-27T21:29:33.098Z,4.34
2022-11-27T21:33:35.186Z,4.32
2022-11-27T21:37:37.072Z,4.29
2022-11-27T21:41:39.166Z,4.34
2022-11-27T21:45:40.904Z,4.30
2022-11-27T21:49:42.850Z,4.29
2022-11-27T21:53:46.414Z,4.31
2022-11-27T21:57:48.370Z,4.34
2022-11-27T22:01:51.102Z,4.36
2022-11-27T22:06:04.866Z,4.32
2022-11-27T22:10:11.804Z,4.18
2022-11-27T22:14:15.343Z,4.24
2022-11-27T22:18:18.303Z,4.15
2022-11-27T22:22:20.147Z,4.20
2022-11-27T22:26:23.692Z,4.28
2022-11-27T22:30:26.080Z,4.17
2022-11-27T22:34:27.998Z,4.26
2022-11-27T22:38:29.793Z,4.27
2022-11-27T22:42:31.995Z,4.31
2022-11-27T22:46:35.615Z,4.26
2022-11-27T22:50:38.058Z,4.21
2022-11-27T22:54:40.293Z,4.21
2022-11-27T22:58:43.240Z,4.26
2022-11-27T23:02:44.910Z,4.20
2022-11-27T23:06:48.338Z,4.16
2022-11-27T23:10:50.741Z,4.12
2022-11-27T23:14:52.263Z,4.15
2022-11-27T23:18:53.732Z,4.09
2022-11-27T23:22:55.295Z,4.14
2022-11-27T23:26:56.842Z,4.12
2022-11-27T23:31:22.180Z,4.12
2022-11-27T23:35:20.147Z,4.14
2022-11-27T23:39:21.859Z,4.11
2022-11-27T23:43:23.463Z,4.15
2022-11-27T23:47:25.049Z,4.11
2022-11-27T23:51:30.139Z,4.11
2022-11-27T23:55:36.201Z,4.16
2022-11-27T23:59:37.766Z,4.20
